sensor_id;sensor_type;location;lat;lon;timestamp;P1;durP1;ratioP1;P2;durP2;ratioP2
76357;SDS011;65185;21.060;105.826;2023-10-08T00:02:26;21.15;;;11.18;;
76357;SDS011;65185;21.060;105.826;2023-10-08T00:04:53;22.83;;;10.45;;
76357;SDS011;65185;21.060;105.826;2023-10-08T00:07:21;22.02;;;11.30;;
76357;SDS011;65185;21.060;105.826;2023-10-08T00:09:50;19.15;;;9.20;;
76357;SDS011;65185;21.060;105.826;2023-10-08T00:12:18;26.27;;;11.15;;
76357;SDS011;65185;21.060;105.826;2023-10-08T00:14:48;22.08;;;10.82;;
76357;SDS011;65185;21.060;105.826;2023-10-08T00:17:16;21.30;;;10.70;;
76357;SDS011;65185;21.060;105.826;2023-10-08T00:19:44;22.08;;;10.45;;
76357;SDS011;65185;21.060;105.826;2023-10-08T00:22:11;24.92;;;11.57;;
76357;SDS011;65185;21.060;105.826;2023-10-08T00:24:43;20.35;;;10.25;;
76357;SDS011;65185;21.060;105.826;2023-10-08T00:27:15;20.35;;;10.63;;
76357;SDS011;65185;21.060;105.826;2023-10-08T00:29:43;18.40;;;10.02;;
76357;SDS011;65185;21.060;105.826;2023-10-08T00:32:10;21.80;;;10.73;;
76357;SDS011;65185;21.060;105.826;2023-10-08T00:34:41;20.63;;;10.18;;
76357;SDS011;65185;21.060;105.826;2023-10-08T00:37:11;21.52;;;10.93;;
76357;SDS011;65185;21.060;105.826;2023-10-08T00:39:40;21.42;;;11.68;;
76357;SDS011;65185;21.060;105.826;2023-10-08T00:42:08;21.58;;;11.90;;
76357;SDS011;65185;21.060;105.826;2023-10-08T00:44:38;24.88;;;11.77;;
76357;SDS011;65185;21.060;105.826;2023-10-08T00:47:23;20.58;;;10.65;;
76357;SDS011;65185;21.060;105.826;2023-10-08T00:55:10;21.30;;;10.23;;
76357;SDS011;65185;21.060;105.826;2023-10-08T00:57:50;25.77;;;11.82;;
76357;SDS011;65185;21.060;105.826;2023-10-08T01:00:23;23.83;;;11.93;;
76357;SDS011;65185;21.060;105.826;2023-10-08T01:03:04;23.70;;;12.07;;
76357;SDS011;65185;21.060;105.826;2023-10-08T01:05:41;24.20;;;12.20;;
76357;SDS011;65185;21.060;105.826;2023-10-08T01:08:09;23.75;;;12.38;;
76357;SDS011;65185;21.060;105.826;2023-10-08T01:10:38;26.33;;;12.57;;
76357;SDS011;65185;21.060;105.826;2023-10-08T01:13:22;24.70;;;12.80;;
76357;SDS011;65185;21.060;105.826;2023-10-08T01:15:52;26.60;;;12.75;;
76357;SDS011;65185;21.060;105.826;2023-10-08T01:18:20;23.35;;;11.85;;
76357;SDS011;65185;21.060;105.826;2023-10-08T01:20:56;23.92;;;12.07;;
76357;SDS011;65185;21.060;105.826;2023-10-08T01:23:30;25.90;;;11.77;;
76357;SDS011;65185;21.060;105.826;2023-10-08T01:25:57;20.48;;;10.48;;
76357;SDS011;65185;21.060;105.826;2023-10-08T01:28:35;19.63;;;9.98;;
76357;SDS011;65185;21.060;105.826;2023-10-08T01:31:02;19.63;;;11.00;;
76357;SDS011;65185;21.060;105.826;2023-10-08T01:33:30;19.13;;;9.45;;
76357;SDS011;65185;21.060;105.826;2023-10-08T01:36:02;20.38;;;10.63;;
76357;SDS011;65185;21.060;105.826;2023-10-08T01:38:30;19.02;;;10.10;;
76357;SDS011;65185;21.060;105.826;2023-10-08T01:41:00;21.50;;;9.75;;
76357;SDS011;65185;21.060;105.826;2023-10-08T01:43:44;15.25;;;7.70;;
76357;SDS011;65185;21.060;105.826;2023-10-08T01:46:17;16.40;;;7.10;;
76357;SDS011;65185;21.060;105.826;2023-10-08T01:48:47;13.57;;;6.78;;
76357;SDS011;65185;21.060;105.826;2023-10-08T01:51:18;13.55;;;7.22;;
76357;SDS011;65185;21.060;105.826;2023-10-08T01:53:51;12.40;;;6.43;;
76357;SDS011;65185;21.060;105.826;2023-10-08T01:56:23;13.38;;;6.20;;
76357;SDS011;65185;21.060;105.826;2023-10-08T01:58:50;12.32;;;6.25;;
76357;SDS011;65185;21.060;105.826;2023-10-08T02:01:20;10.38;;;6.25;;
76357;SDS011;65185;21.060;105.826;2023-10-08T02:03:47;11.77;;;6.13;;
76357;SDS011;65185;21.060;105.826;2023-10-08T02:06:15;12.63;;;6.45;;
76357;SDS011;65185;21.060;105.826;2023-10-08T02:08:41;12.55;;;6.22;;
76357;SDS011;65185;21.060;105.826;2023-10-08T02:11:08;11.77;;;6.30;;
76357;SDS011;65185;21.060;105.826;2023-10-08T02:13:35;12.07;;;6.15;;
76357;SDS011;65185;21.060;105.826;2023-10-08T02:16:02;13.45;;;7.05;;
76357;SDS011;65185;21.060;105.826;2023-10-08T02:18:29;11.45;;;6.60;;
76357;SDS011;65185;21.060;105.826;2023-10-08T02:20:56;11.23;;;6.00;;
76357;SDS011;65185;21.060;105.826;2023-10-08T02:23:24;13.70;;;6.60;;
76357;SDS011;65185;21.060;105.826;2023-10-08T02:25:51;11.80;;;6.00;;
76357;SDS011;65185;21.060;105.826;2023-10-08T02:28:20;9.63;;;5.65;;
76357;SDS011;65185;21.060;105.826;2023-10-08T02:30:49;10.43;;;5.45;;
76357;SDS011;65185;21.060;105.826;2023-10-08T02:33:16;9.80;;;5.00;;
76357;SDS011;65185;21.060;105.826;2023-10-08T02:35:44;9.40;;;5.00;;
76357;SDS011;65185;21.060;105.826;2023-10-08T02:38:12;10.88;;;5.75;;
76357;SDS011;65185;21.060;105.826;2023-10-08T02:40:43;15.93;;;9.15;;
76357;SDS011;65185;21.060;105.826;2023-10-08T02:43:13;16.33;;;9.57;;
76357;SDS011;65185;21.060;105.826;2023-10-08T02:45:41;15.82;;;9.68;;
76357;SDS011;65185;21.060;105.826;2023-10-08T02:48:12;13.65;;;8.07;;
76357;SDS011;65185;21.060;105.826;2023-10-08T02:50:42;11.80;;;6.38;;
76357;SDS011;65185;21.060;105.826;2023-10-08T02:53:12;11.05;;;5.97;;
76357;SDS011;65185;21.060;105.826;2023-10-08T02:55:43;11.32;;;5.43;;
76357;SDS011;65185;21.060;105.826;2023-10-08T02:58:12;10.60;;;5.18;;
76357;SDS011;65185;21.060;105.826;2023-10-08T03:00:43;9.07;;;5.47;;
76357;SDS011;65185;21.060;105.826;2023-10-08T03:03:15;8.95;;;5.13;;
76357;SDS011;65185;21.060;105.826;2023-10-08T03:05:44;8.23;;;4.80;;
76357;SDS011;65185;21.060;105.826;2023-10-08T03:08:18;9.20;;;5.03;;
76357;SDS011;65185;21.060;105.826;2023-10-08T03:10:52;10.90;;;4.90;;
76357;SDS011;65185;21.060;105.826;2023-10-08T03:13:28;9.05;;;4.78;;
76357;SDS011;65185;21.060;105.826;2023-10-08T03:15:54;10.40;;;4.80;;
76357;SDS011;65185;21.060;105.826;2023-10-08T03:18:24;11.57;;;5.55;;
76357;SDS011;65185;21.060;105.826;2023-10-08T03:20:59;8.15;;;4.57;;
76357;SDS011;65185;21.060;105.826;2023-10-08T03:23:29;11.88;;;5.07;;
76357;SDS011;65185;21.060;105.826;2023-10-08T03:26:02;8.48;;;4.35;;
76357;SDS011;65185;21.060;105.826;2023-10-08T03:28:33;9.07;;;4.45;;
76357;SDS011;65185;21.060;105.826;2023-10-08T03:31:03;9.38;;;5.20;;
76357;SDS011;65185;21.060;105.826;2023-10-08T03:33:31;11.13;;;5.45;;
76357;SDS011;65185;21.060;105.826;2023-10-08T03:36:03;10.15;;;5.22;;
76357;SDS011;65185;21.060;105.826;2023-10-08T03:38:49;8.07;;;4.25;;
76357;SDS011;65185;21.060;105.826;2023-10-08T03:41:25;11.70;;;4.55;;
76357;SDS011;65185;21.060;105.826;2023-10-08T03:43:58;7.85;;;4.00;;
76357;SDS011;65185;21.060;105.826;2023-10-08T03:46:31;8.48;;;5.70;;
76357;SDS011;65185;21.060;105.826;2023-10-08T03:49:08;9.75;;;4.55;;
76357;SDS011;65185;21.060;105.826;2023-10-08T03:51:57;8.35;;;4.40;;
76357;SDS011;65185;21.060;105.826;2023-10-08T03:54:44;9.38;;;5.03;;
76357;SDS011;65185;21.060;105.826;2023-10-08T03:57:33;9.70;;;4.57;;
76357;SDS011;65185;21.060;105.826;2023-10-08T04:00:13;14.15;;;5.00;;
76357;SDS011;65185;21.060;105.826;2023-10-08T04:02:44;8.93;;;5.28;;
76357;SDS011;65185;21.060;105.826;2023-10-08T04:05:34;12.60;;;5.03;;
76357;SDS011;65185;21.060;105.826;2023-10-08T04:08:19;12.73;;;5.70;;
76357;SDS011;65185;21.060;105.826;2023-10-08T04:11:06;14.23;;;7.10;;
76357;SDS011;65185;21.060;105.826;2023-10-08T04:13:55;12.65;;;6.20;;
76357;SDS011;65185;21.060;105.826;2023-10-08T04:16:25;12.50;;;6.38;;
76357;SDS011;65185;21.060;105.826;2023-10-08T04:18:53;10.27;;;6.18;;
76357;SDS011;65185;21.060;105.826;2023-10-08T04:21:24;9.52;;;5.05;;
76357;SDS011;65185;21.060;105.826;2023-10-08T04:23:53;11.00;;;4.72;;
76357;SDS011;65185;21.060;105.826;2023-10-08T04:26:23;8.98;;;4.45;;
76357;SDS011;65185;21.060;105.826;2023-10-08T04:28:51;11.15;;;5.03;;
76357;SDS011;65185;21.060;105.826;2023-10-08T04:31:28;8.35;;;4.47;;
76357;SDS011;65185;21.060;105.826;2023-10-08T04:34:06;13.13;;;5.53;;
76357;SDS011;65185;21.060;105.826;2023-10-08T04:36:52;10.88;;;4.97;;
76357;SDS011;65185;21.060;105.826;2023-10-08T04:39:42;9.55;;;4.90;;
76357;SDS011;65185;21.060;105.826;2023-10-08T04:42:14;11.98;;;4.95;;
76357;SDS011;65185;21.060;105.826;2023-10-08T04:44:43;9.75;;;5.13;;
76357;SDS011;65185;21.060;105.826;2023-10-08T04:47:31;11.00;;;5.18;;
76357;SDS011;65185;21.060;105.826;2023-10-08T04:49:58;8.75;;;4.75;;
76357;SDS011;65185;21.060;105.826;2023-10-08T04:52:25;9.98;;;4.85;;
76357;SDS011;65185;21.060;105.826;2023-10-08T04:54:53;7.55;;;4.32;;
76357;SDS011;65185;21.060;105.826;2023-10-08T04:57:20;8.93;;;4.47;;
76357;SDS011;65185;21.060;105.826;2023-10-08T04:59:55;9.90;;;4.30;;
76357;SDS011;65185;21.060;105.826;2023-10-08T05:02:23;10.32;;;5.15;;
76357;SDS011;65185;21.060;105.826;2023-10-08T05:05:07;10.35;;;5.00;;
76357;SDS011;65185;21.060;105.826;2023-10-08T05:07:37;10.45;;;4.88;;
76357;SDS011;65185;21.060;105.826;2023-10-08T05:10:10;9.10;;;4.72;;
76357;SDS011;65185;21.060;105.826;2023-10-08T05:12:52;8.05;;;4.15;;
76357;SDS011;65185;21.060;105.826;2023-10-08T05:15:32;8.77;;;4.60;;
76357;SDS011;65185;21.060;105.826;2023-10-08T05:18:07;8.65;;;4.85;;
76357;SDS011;65185;21.060;105.826;2023-10-08T05:20:39;11.07;;;5.10;;
76357;SDS011;65185;21.060;105.826;2023-10-08T05:23:07;8.05;;;4.32;;
76357;SDS011;65185;21.060;105.826;2023-10-08T05:25:47;13.23;;;4.72;;
76357;SDS011;65185;21.060;105.826;2023-10-08T05:28:36;8.40;;;4.78;;
76357;SDS011;65185;21.060;105.826;2023-10-08T05:31:23;9.13;;;4.65;;
76357;SDS011;65185;21.060;105.826;2023-10-08T05:34:17;9.38;;;5.05;;
76357;SDS011;65185;21.060;105.826;2023-10-08T05:36:59;9.20;;;4.88;;
76357;SDS011;65185;21.060;105.826;2023-10-08T05:39:37;10.02;;;5.00;;
76357;SDS011;65185;21.060;105.826;2023-10-08T05:42:04;9.27;;;4.65;;
76357;SDS011;65185;21.060;105.826;2023-10-08T05:45:07;10.95;;;5.40;;
76357;SDS011;65185;21.060;105.826;2023-10-08T05:47:36;12.35;;;4.90;;
76357;SDS011;65185;21.060;105.826;2023-10-08T05:50:25;7.95;;;4.68;;
76357;SDS011;65185;21.060;105.826;2023-10-08T05:52:52;9.90;;;4.68;;
76357;SDS011;65185;21.060;105.826;2023-10-08T05:55:22;10.02;;;4.60;;
76357;SDS011;65185;21.060;105.826;2023-10-08T05:58:02;9.25;;;4.47;;
76357;SDS011;65185;21.060;105.826;2023-10-08T06:01:01;8.68;;;4.82;;
76357;SDS011;65185;21.060;105.826;2023-10-08T06:03:33;8.15;;;4.03;;
76357;SDS011;65185;21.060;105.826;2023-10-08T06:06:04;8.52;;;3.83;;
76357;SDS011;65185;21.060;105.826;2023-10-08T06:08:45;9.02;;;4.28;;
76357;SDS011;65185;21.060;105.826;2023-10-08T06:11:35;10.35;;;4.57;;
76357;SDS011;65185;21.060;105.826;2023-10-08T06:14:10;9.70;;;4.00;;
76357;SDS011;65185;21.060;105.826;2023-10-08T06:16:42;9.63;;;4.40;;
76357;SDS011;65185;21.060;105.826;2023-10-08T06:19:12;9.48;;;4.72;;
76357;SDS011;65185;21.060;105.826;2023-10-08T06:21:51;10.63;;;4.55;;
76357;SDS011;65185;21.060;105.826;2023-10-08T06:24:19;8.77;;;4.30;;
76357;SDS011;65185;21.060;105.826;2023-10-08T06:26:48;8.70;;;4.43;;
76357;SDS011;65185;21.060;105.826;2023-10-08T06:29:15;11.50;;;4.72;;
76357;SDS011;65185;21.060;105.826;2023-10-08T06:32:02;8.35;;;4.32;;
76357;SDS011;65185;21.060;105.826;2023-10-08T06:34:34;11.00;;;4.10;;
76357;SDS011;65185;21.060;105.826;2023-10-08T06:37:00;9.18;;;4.07;;
76357;SDS011;65185;21.060;105.826;2023-10-08T06:39:32;8.65;;;4.40;;
76357;SDS011;65185;21.060;105.826;2023-10-08T06:42:22;8.80;;;4.10;;
76357;SDS011;65185;21.060;105.826;2023-10-08T06:44:52;8.07;;;4.28;;
76357;SDS011;65185;21.060;105.826;2023-10-08T06:47:23;7.47;;;3.90;;
76357;SDS011;65185;21.060;105.826;2023-10-08T06:49:51;8.68;;;3.83;;
76357;SDS011;65185;21.060;105.826;2023-10-08T06:52:20;9.07;;;4.28;;
76357;SDS011;65185;21.060;105.826;2023-10-08T06:54:48;10.23;;;4.40;;
76357;SDS011;65185;21.060;105.826;2023-10-08T06:57:18;9.70;;;4.10;;
76357;SDS011;65185;21.060;105.826;2023-10-08T06:59:51;8.85;;;4.32;;
76357;SDS011;65185;21.060;105.826;2023-10-08T07:02:18;9.25;;;4.43;;
76357;SDS011;65185;21.060;105.826;2023-10-08T07:04:47;11.30;;;4.45;;
76357;SDS011;65185;21.060;105.826;2023-10-08T07:07:16;8.20;;;4.50;;
76357;SDS011;65185;21.060;105.826;2023-10-08T07:09:44;8.73;;;4.38;;
76357;SDS011;65185;21.060;105.826;2023-10-08T07:12:14;8.60;;;4.63;;
76357;SDS011;65185;21.060;105.826;2023-10-08T07:14:50;9.75;;;4.40;;
76357;SDS011;65185;21.060;105.826;2023-10-08T07:17:19;9.52;;;4.50;;
76357;SDS011;65185;21.060;105.826;2023-10-08T07:19:46;8.52;;;3.97;;
76357;SDS011;65185;21.060;105.826;2023-10-08T07:22:17;10.23;;;4.82;;
76357;SDS011;65185;21.060;105.826;2023-10-08T07:27:52;8.98;;;4.68;;
76357;SDS011;65185;21.060;105.826;2023-10-08T07:30:19;9.98;;;4.93;;
76357;SDS011;65185;21.060;105.826;2023-10-08T07:32:52;8.85;;;4.20;;
76357;SDS011;65185;21.060;105.826;2023-10-08T07:35:24;9.25;;;4.60;;
76357;SDS011;65185;21.060;105.826;2023-10-08T07:37:56;9.93;;;4.40;;
76357;SDS011;65185;21.060;105.826;2023-10-08T07:40:26;8.80;;;4.68;;
76357;SDS011;65185;21.060;105.826;2023-10-08T07:42:57;10.10;;;4.35;;
76357;SDS011;65185;21.060;105.826;2023-10-08T07:45:34;8.23;;;4.22;;
76357;SDS011;65185;21.060;105.826;2023-10-08T07:48:02;7.97;;;4.47;;
76357;SDS011;65185;21.060;105.826;2023-10-08T07:50:40;11.00;;;4.00;;
76357;SDS011;65185;21.060;105.826;2023-10-08T07:53:09;6.38;;;3.33;;
76357;SDS011;65185;21.060;105.826;2023-10-08T07:55:44;7.03;;;3.70;;
76357;SDS011;65185;21.060;105.826;2023-10-08T07:58:20;10.52;;;4.25;;
76357;SDS011;65185;21.060;105.826;2023-10-08T08:00:49;7.72;;;4.03;;
76357;SDS011;65185;21.060;105.826;2023-10-08T08:03:20;8.10;;;4.10;;
76357;SDS011;65185;21.060;105.826;2023-10-08T08:05:51;8.27;;;3.80;;
76357;SDS011;65185;21.060;105.826;2023-10-08T08:08:20;7.05;;;3.63;;
76357;SDS011;65185;21.060;105.826;2023-10-08T08:10:53;7.15;;;3.78;;
76357;SDS011;65185;21.060;105.826;2023-10-08T08:13:23;10.18;;;4.00;;
76357;SDS011;65185;21.060;105.826;2023-10-08T08:15:54;8.55;;;4.00;;
76357;SDS011;65185;21.060;105.826;2023-10-08T08:18:24;8.32;;;4.22;;
76357;SDS011;65185;21.060;105.826;2023-10-08T08:20:59;8.98;;;4.05;;
76357;SDS011;65185;21.060;105.826;2023-10-08T08:23:30;7.82;;;3.75;;
76357;SDS011;65185;21.060;105.826;2023-10-08T08:25:58;7.40;;;3.75;;
76357;SDS011;65185;21.060;105.826;2023-10-08T08:28:38;8.45;;;4.00;;
76357;SDS011;65185;21.060;105.826;2023-10-08T08:31:11;7.13;;;3.80;;
76357;SDS011;65185;21.060;105.826;2023-10-08T08:33:46;7.72;;;4.00;;
76357;SDS011;65185;21.060;105.826;2023-10-08T08:36:32;6.95;;;3.60;;
76357;SDS011;65185;21.060;105.826;2023-10-08T08:39:05;9.45;;;4.07;;
76357;SDS011;65185;21.060;105.826;2023-10-08T08:41:36;8.88;;;4.10;;
76357;SDS011;65185;21.060;105.826;2023-10-08T08:44:05;8.35;;;3.75;;
76357;SDS011;65185;21.060;105.826;2023-10-08T08:46:35;7.53;;;3.97;;
76357;SDS011;65185;21.060;105.826;2023-10-08T08:49:09;8.18;;;4.10;;
76357;SDS011;65185;21.060;105.826;2023-10-08T08:51:43;8.73;;;4.18;;
76357;SDS011;65185;21.060;105.826;2023-10-08T08:54:19;9.60;;;4.45;;
76357;SDS011;65185;21.060;105.826;2023-10-08T08:56:50;8.70;;;4.40;;
76357;SDS011;65185;21.060;105.826;2023-10-08T08:59:25;8.75;;;5.13;;
76357;SDS011;65185;21.060;105.826;2023-10-08T09:01:59;11.18;;;5.15;;
76357;SDS011;65185;21.060;105.826;2023-10-08T09:04:30;8.07;;;4.47;;
76357;SDS011;65185;21.060;105.826;2023-10-08T09:07:03;10.48;;;5.05;;
76357;SDS011;65185;21.060;105.826;2023-10-08T09:09:33;11.93;;;5.15;;
76357;SDS011;65185;21.060;105.826;2023-10-08T09:12:05;11.02;;;5.50;;
76357;SDS011;65185;21.060;105.826;2023-10-08T09:14:36;14.10;;;6.05;;
76357;SDS011;65185;21.060;105.826;2023-10-08T09:17:07;11.48;;;6.22;;
76357;SDS011;65185;21.060;105.826;2023-10-08T09:19:38;12.13;;;6.38;;
76357;SDS011;65185;21.060;105.826;2023-10-08T09:24:35;12.82;;;7.65;;
76357;SDS011;65185;21.060;105.826;2023-10-08T09:27:04;14.63;;;7.60;;
76357;SDS011;65185;21.060;105.826;2023-10-08T09:29:44;14.20;;;7.32;;
76357;SDS011;65185;21.060;105.826;2023-10-08T09:32:16;14.25;;;7.05;;
76357;SDS011;65185;21.060;105.826;2023-10-08T09:34:49;13.85;;;7.00;;
76357;SDS011;65185;21.060;105.826;2023-10-08T09:37:19;14.25;;;6.68;;
76357;SDS011;65185;21.060;105.826;2023-10-08T09:39:48;11.60;;;6.30;;
76357;SDS011;65185;21.060;105.826;2023-10-08T09:42:17;14.20;;;5.97;;
76357;SDS011;65185;21.060;105.826;2023-10-08T09:44:54;14.65;;;6.10;;
76357;SDS011;65185;21.060;105.826;2023-10-08T09:47:21;12.05;;;6.05;;
76357;SDS011;65185;21.060;105.826;2023-10-08T09:50:04;10.82;;;5.85;;
76357;SDS011;65185;21.060;105.826;2023-10-08T09:52:42;11.65;;;5.78;;
76357;SDS011;65185;21.060;105.826;2023-10-08T09:55:21;11.10;;;5.88;;
76357;SDS011;65185;21.060;105.826;2023-10-08T09:57:49;10.02;;;5.97;;
76357;SDS011;65185;21.060;105.826;2023-10-08T10:00:21;11.77;;;6.10;;
76357;SDS011;65185;21.060;105.826;2023-10-08T10:03:00;9.93;;;5.40;;
76357;SDS011;65185;21.060;105.826;2023-10-08T10:05:32;11.65;;;6.35;;
76357;SDS011;65185;21.060;105.826;2023-10-08T10:08:03;13.43;;;6.90;;
76357;SDS011;65185;21.060;105.826;2023-10-08T10:10:35;14.02;;;6.50;;
76357;SDS011;65185;21.060;105.826;2023-10-08T10:13:04;12.55;;;6.55;;
76357;SDS011;65185;21.060;105.826;2023-10-08T10:15:37;12.93;;;6.45;;
76357;SDS011;65185;21.060;105.826;2023-10-08T10:21:27;12.77;;;6.03;;
76357;SDS011;65185;21.060;105.826;2023-10-08T10:23:41;13.15;;;5.97;;
76357;SDS011;65185;21.060;105.826;2023-10-08T10:26:29;11.88;;;5.95;;
76357;SDS011;65185;21.060;105.826;2023-10-08T10:31:45;11.68;;;6.10;;
76357;SDS011;65185;21.060;105.826;2023-10-08T10:34:25;12.75;;;6.47;;
76357;SDS011;65185;21.060;105.826;2023-10-08T10:36:57;11.65;;;6.22;;
76357;SDS011;65185;21.060;105.826;2023-10-08T10:39:34;11.93;;;5.70;;
76357;SDS011;65185;21.060;105.826;2023-10-08T10:42:07;12.45;;;6.63;;
76357;SDS011;65185;21.060;105.826;2023-10-08T10:44:48;13.70;;;6.57;;
76357;SDS011;65185;21.060;105.826;2023-10-08T10:47:22;12.88;;;6.80;;
76357;SDS011;65185;21.060;105.826;2023-10-08T10:49:54;15.27;;;8.00;;
76357;SDS011;65185;21.060;105.826;2023-10-08T10:52:27;10.75;;;6.75;;
76357;SDS011;65185;21.060;105.826;2023-10-08T10:55:05;13.32;;;6.75;;
76357;SDS011;65185;21.060;105.826;2023-10-08T10:57:43;13.73;;;7.90;;
76357;SDS011;65185;21.060;105.826;2023-10-08T11:00:20;15.50;;;8.05;;
76357;SDS011;65185;21.060;105.826;2023-10-08T11:02:59;16.20;;;8.50;;
76357;SDS011;65185;21.060;105.826;2023-10-08T11:05:30;16.48;;;9.07;;
76357;SDS011;65185;21.060;105.826;2023-10-08T11:08:06;16.88;;;8.45;;
76357;SDS011;65185;21.060;105.826;2023-10-08T11:10:35;17.73;;;9.25;;
76357;SDS011;65185;21.060;105.826;2023-10-08T11:13:12;17.92;;;9.23;;
76357;SDS011;65185;21.060;105.826;2023-10-08T11:15:44;20.80;;;11.10;;
76357;SDS011;65185;21.060;105.826;2023-10-08T11:18:22;22.95;;;11.10;;
76357;SDS011;65185;21.060;105.826;2023-10-08T11:20:50;21.55;;;11.75;;
76357;SDS011;65185;21.060;105.826;2023-10-08T11:23:33;22.05;;;12.73;;
76357;SDS011;65185;21.060;105.826;2023-10-08T11:26:08;25.75;;;14.20;;
76357;SDS011;65185;21.060;105.826;2023-10-08T11:28:38;25.98;;;14.35;;
76357;SDS011;65185;21.060;105.826;2023-10-08T11:31:13;26.70;;;14.07;;
76357;SDS011;65185;21.060;105.826;2023-10-08T11:33:47;29.83;;;15.75;;
76357;SDS011;65185;21.060;105.826;2023-10-08T11:36:20;28.60;;;16.45;;
76357;SDS011;65185;21.060;105.826;2023-10-08T11:39:08;27.67;;;15.70;;
76357;SDS011;65185;21.060;105.826;2023-10-08T11:41:57;30.88;;;15.43;;
76357;SDS011;65185;21.060;105.826;2023-10-08T11:47:02;26.63;;;15.27;;
76357;SDS011;65185;21.060;105.826;2023-10-08T11:49:46;25.98;;;15.60;;
76357;SDS011;65185;21.060;105.826;2023-10-08T11:52:19;29.02;;;15.18;;
76357;SDS011;65185;21.060;105.826;2023-10-08T11:54:47;24.58;;;14.05;;
76357;SDS011;65185;21.060;105.826;2023-10-08T11:57:15;22.60;;;13.13;;
76357;SDS011;65185;21.060;105.826;2023-10-08T11:59:47;22.35;;;13.25;;
76357;SDS011;65185;21.060;105.826;2023-10-08T12:02:17;24.45;;;13.25;;
76357;SDS011;65185;21.060;105.826;2023-10-08T12:04:49;24.48;;;13.52;;
76357;SDS011;65185;21.060;105.826;2023-10-08T12:07:17;25.08;;;12.73;;
76357;SDS011;65185;21.060;105.826;2023-10-08T12:09:53;23.17;;;13.30;;
76357;SDS011;65185;21.060;105.826;2023-10-08T12:12:21;19.92;;;13.10;;
76357;SDS011;65185;21.060;105.826;2023-10-08T12:14:49;24.70;;;13.27;;
76357;SDS011;65185;21.060;105.826;2023-10-08T12:17:20;22.42;;;13.27;;
76357;SDS011;65185;21.060;105.826;2023-10-08T12:22:42;32.17;;;18.65;;
76357;SDS011;65185;21.060;105.826;2023-10-08T12:25:15;40.00;;;20.80;;
76357;SDS011;65185;21.060;105.826;2023-10-08T12:27:45;40.53;;;22.55;;
76357;SDS011;65185;21.060;105.826;2023-10-08T12:30:13;44.60;;;23.10;;
76357;SDS011;65185;21.060;105.826;2023-10-08T12:32:43;50.08;;;25.55;;
76357;SDS011;65185;21.060;105.826;2023-10-08T12:35:16;55.65;;;28.88;;
76357;SDS011;65185;21.060;105.826;2023-10-08T12:37:48;54.85;;;28.27;;
76357;SDS011;65185;21.060;105.826;2023-10-08T12:40:17;57.65;;;30.33;;
76357;SDS011;65185;21.060;105.826;2023-10-08T12:42:51;51.58;;;29.23;;
76357;SDS011;65185;21.060;105.826;2023-10-08T12:45:19;52.70;;;30.13;;
76357;SDS011;65185;21.060;105.826;2023-10-08T12:47:53;55.05;;;31.55;;
76357;SDS011;65185;21.060;105.826;2023-10-08T12:50:24;55.40;;;30.45;;
76357;SDS011;65185;21.060;105.826;2023-10-08T12:53:08;49.30;;;29.02;;
76357;SDS011;65185;21.060;105.826;2023-10-08T12:55:40;51.25;;;28.08;;
76357;SDS011;65185;21.060;105.826;2023-10-08T12:58:07;45.42;;;25.52;;
76357;SDS011;65185;21.060;105.826;2023-10-08T13:00:40;48.72;;;26.23;;
76357;SDS011;65185;21.060;105.826;2023-10-08T13:03:07;45.33;;;25.20;;
76357;SDS011;65185;21.060;105.826;2023-10-08T13:05:44;44.67;;;24.45;;
76357;SDS011;65185;21.060;105.826;2023-10-08T13:08:13;42.50;;;24.30;;
76357;SDS011;65185;21.060;105.826;2023-10-08T13:10:46;48.67;;;25.33;;
76357;SDS011;65185;21.060;105.826;2023-10-08T13:13:15;47.38;;;24.95;;
76357;SDS011;65185;21.060;105.826;2023-10-08T13:15:44;42.08;;;23.52;;
76357;SDS011;65185;21.060;105.826;2023-10-08T13:18:24;43.92;;;23.52;;
76357;SDS011;65185;21.060;105.826;2023-10-08T13:20:55;39.80;;;21.95;;
76357;SDS011;65185;21.060;105.826;2023-10-08T13:23:27;37.70;;;21.17;;
76357;SDS011;65185;21.060;105.826;2023-10-08T13:26:02;36.60;;;22.50;;
76357;SDS011;65185;21.060;105.826;2023-10-08T13:28:35;43.75;;;22.45;;
76357;SDS011;65185;21.060;105.826;2023-10-08T13:31:09;38.40;;;21.70;;
76357;SDS011;65185;21.060;105.826;2023-10-08T13:36:11;39.15;;;21.40;;
76357;SDS011;65185;21.060;105.826;2023-10-08T13:38:40;44.78;;;24.35;;
76357;SDS011;65185;21.060;105.826;2023-10-08T13:41:14;42.55;;;22.25;;
76357;SDS011;65185;21.060;105.826;2023-10-08T13:43:46;43.78;;;24.05;;
76357;SDS011;65185;21.060;105.826;2023-10-08T13:46:43;38.97;;;22.38;;
76357;SDS011;65185;21.060;105.826;2023-10-08T13:49:18;38.60;;;23.83;;
76357;SDS011;65185;21.060;105.826;2023-10-08T13:51:48;43.25;;;24.15;;
76357;SDS011;65185;21.060;105.826;2023-10-08T13:54:26;48.78;;;25.65;;
76357;SDS011;65185;21.060;105.826;2023-10-08T13:57:18;57.83;;;34.10;;
76357;SDS011;65185;21.060;105.826;2023-10-08T13:59:52;53.78;;;30.35;;
76357;SDS011;65185;21.060;105.826;2023-10-08T14:02:22;49.92;;;28.13;;
76357;SDS011;65185;21.060;105.826;2023-10-08T14:04:50;49.92;;;27.25;;
76357;SDS011;65185;21.060;105.826;2023-10-08T14:07:19;43.90;;;24.60;;
76357;SDS011;65185;21.060;105.826;2023-10-08T14:10:06;39.78;;;23.52;;
76357;SDS011;65185;21.060;105.826;2023-10-08T14:12:42;38.83;;;22.83;;
76357;SDS011;65185;21.060;105.826;2023-10-08T14:15:16;37.45;;;21.55;;
76357;SDS011;65185;21.060;105.826;2023-10-08T14:17:48;38.25;;;20.27;;
76357;SDS011;65185;21.060;105.826;2023-10-08T14:20:20;32.88;;;19.25;;
76357;SDS011;65185;21.060;105.826;2023-10-08T14:22:53;33.53;;;19.77;;
76357;SDS011;65185;21.060;105.826;2023-10-08T14:25:28;32.53;;;18.65;;
76357;SDS011;65185;21.060;105.826;2023-10-08T14:27:59;30.55;;;18.25;;
76357;SDS011;65185;21.060;105.826;2023-10-08T14:30:34;33.28;;;17.85;;
76357;SDS011;65185;21.060;105.826;2023-10-08T14:33:06;29.83;;;17.23;;
76357;SDS011;65185;21.060;105.826;2023-10-08T14:35:40;26.90;;;16.73;;
76357;SDS011;65185;21.060;105.826;2023-10-08T14:38:28;28.42;;;17.05;;
76357;SDS011;65185;21.060;105.826;2023-10-08T14:41:15;29.45;;;16.85;;
76357;SDS011;65185;21.060;105.826;2023-10-08T14:44:03;29.20;;;17.25;;
76357;SDS011;65185;21.060;105.826;2023-10-08T14:46:33;25.58;;;16.77;;
76357;SDS011;65185;21.060;105.826;2023-10-08T14:49:02;27.77;;;17.00;;
76357;SDS011;65185;21.060;105.826;2023-10-08T14:51:35;26.48;;;16.23;;
76357;SDS011;65185;21.060;105.826;2023-10-08T14:54:13;30.70;;;17.08;;
76357;SDS011;65185;21.060;105.826;2023-10-08T14:56:41;29.25;;;16.70;;
76357;SDS011;65185;21.060;105.826;2023-10-08T14:59:09;32.13;;;17.88;;
76357;SDS011;65185;21.060;105.826;2023-10-08T15:01:37;29.70;;;18.10;;
76357;SDS011;65185;21.060;105.826;2023-10-08T15:04:08;29.67;;;18.65;;
76357;SDS011;65185;21.060;105.826;2023-10-08T15:06:37;30.48;;;17.58;;
76357;SDS011;65185;21.060;105.826;2023-10-08T15:09:05;31.02;;;17.60;;